Airfield :
LOGIN :

Register | Disclaimer

   EN    FR    IT 

 










Legend :    VFR   Marginal VFR   IFR   Intensive IFR   Very Intensive IFR
Visi :
Ceiling :
>= 8 km
>= 3000ft
5 to 8 km
1000 to 3000 ft
1500m to 5 km
500 to 1000 ft
800 to 1500m
200 to 500 ft
< 800m
< 200 ft
Symbols :   Thunderstorms  Fog  Heavy snow  Heavy precipitations  Wind > 20 kt
SIGMETs :     Misc.  Thunderstorms  Icing  Turbulence  Mountain Waves  Volcanic Ashes







- Airport Elevation : 425 ft
- IATA code : DTM


EDLW - Dortmund

CURRENT METAR :
  • 251950Z 19005KT CAVOK 26/17 Q1018

EXPIRED METARs :
  • 251920Z 22006KT CAVOK 28/18 Q1018
  • 251850Z 21007KT CAVOK 31/18 Q1018
  • 251820Z 21006KT CAVOK 33/17 Q1017
  • 251750Z 19006KT CAVOK 33/18 Q1017
  • 251720Z 21008KT CAVOK 35/17 Q1017

TAF TAF EDLW
Valid from the 25 at 18:00 until the 26 at 18:00 UTC


251700Z 2518/2618 21006KT CAVOK
BECMG 2603/2605 28006KT
BECMG 2613/2616 35008KT
No reported NOTAMs for that airfield.



MET'MAP, your aeronautical weather chart ! - Copyright ORBIFLY December 2007 - Disclaimer

ORBIFLY MET'MAP TEAM :

Programming & Development : Alexandra Zaïnal
Concept & Development : Baudouin d'Aumeries
Co-Development & Prog : Marc-Olivier Méhu
Technical & hardware support : Manuel Goepfert

Contact : metmap@orbifly.com




SOURCES & CREDITS :

   NOAA